createdAt,value
2019-04-05T00:02:35.945Z,99643.34
2019-04-05T00:07:40.100Z,99652.23
2019-04-05T00:12:44.189Z,99658.56
2019-04-05T00:17:48.243Z,99665.06
2019-04-05T00:22:52.305Z,99665.69
2019-04-05T00:27:56.396Z,99663.00
2019-04-05T00:33:00.461Z,99658.55
2019-04-05T00:38:04.523Z,99663.89
2019-04-05T00:43:08.596Z,99665.86
2019-04-05T00:48:12.835Z,99659.39
2019-04-05T00:53:16.916Z,99666.23
2019-04-05T00:58:21.287Z,99671.63
2019-04-05T01:03:25.329Z,99667.60
2019-04-05T01:08:29.390Z,99667.60
2019-04-05T01:13:34.036Z,99670.30
2019-04-05T01:18:38.070Z,99676.77
2019-04-05T01:23:44.258Z,99679.74
2019-04-05T01:28:48.346Z,99690.86
2019-04-05T01:33:52.408Z,99693.28
2019-04-05T01:38:56.423Z,99697.97
2019-04-05T01:44:00.491Z,99704.72
2019-04-05T01:49:04.682Z,99715.22
2019-04-05T01:54:08.753Z,99714.47
2019-04-05T01:59:13.084Z,99718.48
2019-04-05T02:04:17.176Z,99739.75
2019-04-05T02:09:21.539Z,99738.76
2019-04-05T02:14:25.619Z,99740.14
2019-04-05T02:19:29.652Z,99734.81
2019-04-05T02:24:33.803Z,99733.85
2019-04-05T02:29:37.812Z,99735.72
2019-04-05T02:34:41.903Z,99733.39
2019-04-05T02:39:46.071Z,99746.20
2019-04-05T02:44:50.993Z,99747.53
2019-04-05T02:49:56.619Z,99748.05
2019-04-05T02:55:01.308Z,99749.03
2019-04-05T03:00:05.507Z,99756.52
2019-04-05T03:05:09.966Z,99747.72
2019-04-05T03:10:50.350Z,99759.35
2019-04-05T03:15:57.405Z,99762.84
2019-04-05T03:21:04.369Z,99766.96
2019-04-05T03:26:11.327Z,99773.94
2019-04-05T03:31:15.510Z,99785.89
2019-04-05T03:36:19.749Z,99790.82
2019-04-05T03:41:23.870Z,99786.00
2019-04-05T03:46:28.066Z,99787.95
2019-04-05T03:51:32.618Z,99794.72
2019-04-05T03:56:38.191Z,99799.52
2019-04-05T04:01:42.773Z,99807.62
2019-04-05T04:06:47.017Z,99814.50
2019-04-05T04:11:51.691Z,99814.48
2019-04-05T04:17:11.013Z,99818.61
2019-04-05T04:22:31.265Z,99823.26
2019-04-05T04:27:35.409Z,99832.55
2019-04-05T04:32:40.296Z,99844.61
2019-04-05T04:37:44.426Z,99856.08
2019-04-05T04:42:49.740Z,99855.02
2019-04-05T04:47:54.317Z,99855.63
2019-04-05T04:52:59.356Z,99863.11
2019-04-05T04:58:04.166Z,99869.29
2019-04-05T05:03:08.857Z,99877.89
2019-04-05T05:08:13.053Z,99891.55
2019-04-05T05:13:17.270Z,99905.89
2019-04-05T05:18:23.134Z,99909.45
2019-04-05T05:23:27.182Z,99914.82
2019-04-05T05:28:32.772Z,99917.36
2019-04-05T05:33:37.581Z,99924.02
2019-04-05T05:38:41.723Z,99938.83
2019-04-05T05:43:46.470Z,99944.64
2019-04-05T05:48:50.792Z,99951.63
2019-04-05T05:53:55.155Z,99953.09
2019-04-05T05:59:02.946Z,99972.36
2019-04-05T06:04:07.316Z,99975.20
2019-04-05T06:09:11.612Z,99991.96
2019-04-05T06:14:15.663Z,99997.80
2019-04-05T06:19:20.901Z,100004.45
2019-04-05T06:24:25.069Z,100005.44
2019-04-05T06:29:29.689Z,99994.73
2019-04-05T06:34:33.987Z,99997.73
2019-04-05T06:39:38.020Z,99999.34
2019-04-05T06:44:42.302Z,100005.61
2019-04-05T06:49:46.899Z,100002.22
2019-04-05T06:54:50.992Z,100005.70
2019-04-05T06:59:55.013Z,100004.86
2019-04-05T07:04:59.017Z,100019.11
2019-04-05T07:10:03.504Z,100023.70
2019-04-05T07:15:07.598Z,100026.38
2019-04-05T07:20:11.773Z,100035.21
2019-04-05T07:25:15.797Z,100047.89
2019-04-05T07:30:20.296Z,100045.48
2019-04-05T07:35:33.282Z,100046.87
2019-04-05T07:40:30.171Z,100056.88
2019-04-05T07:45:34.142Z,100074.07
2019-04-05T07:50:38.244Z,100084.50
2019-04-05T07:55:42.263Z,100090.02
2019-04-05T08:00:51.374Z,100085.11
2019-04-05T08:05:55.438Z,100093.32
2019-04-05T08:10:59.718Z,100100.08
2019-04-05T08:16:03.899Z,100097.59
2019-04-05T08:21:08.019Z,100105.11
2019-04-05T08:26:12.083Z,100094.41
2019-04-05T08:31:16.103Z,100094.00
2019-04-05T08:36:20.125Z,100106.86
2019-04-05T08:41:24.286Z,100115.77
2019-04-05T08:46:28.384Z,100111.42
2019-04-05T08:51:32.658Z,100112.48
2019-04-05T08:56:36.665Z,100119.36
2019-04-05T09:01:40.716Z,100119.41
2019-04-05T09:06:46.082Z,100130.88
2019-04-05T09:11:50.405Z,100132.63
2019-04-05T09:16:54.455Z,100135.37
2019-04-05T09:21:58.871Z,100142.05
2019-04-05T09:27:02.907Z,100147.92
2019-04-05T09:32:06.985Z,100150.46
2019-04-05T09:37:11.150Z,100156.52
2019-04-05T09:42:15.168Z,100154.12
2019-04-05T09:47:19.488Z,100151.91
2019-04-05T09:52:23.566Z,100161.84
2019-04-05T09:57:27.664Z,100157.83
2019-04-05T10:02:32.043Z,100167.47
2019-04-05T10:07:36.132Z,100171.63
2019-04-05T10:12:40.248Z,100180.63
2019-04-05T10:17:44.524Z,100183.13
2019-04-05T10:22:48.623Z,100194.79
2019-04-05T10:27:52.645Z,100194.79
2019-04-05T10:32:56.716Z,100191.80
2019-04-05T10:38:00.716Z,100191.80
2019-04-05T10:43:05.058Z,100202.48
2019-04-05T10:48:09.179Z,100202.62
2019-04-05T10:53:13.334Z,100194.88
2019-04-05T10:58:17.687Z,100207.77
2019-04-05T11:03:25.045Z,100210.71
2019-04-05T11:08:47.376Z,100214.11
2019-04-05T11:13:57.559Z,100221.38
2019-04-05T11:19:02.685Z,100222.39
2019-04-05T11:24:07.370Z,100223.39
2019-04-05T11:29:12.674Z,100219.53
2019-04-05T11:34:17.588Z,100228.80
2019-04-05T11:39:22.030Z,100224.68
2019-04-05T11:44:28.132Z,100218.73
2019-04-05T11:49:40.869Z,100230.66
2019-04-05T11:54:45.949Z,100233.42
2019-04-05T11:59:50.748Z,100233.78
2019-04-05T12:04:54.777Z,100237.91
2019-04-05T12:09:59.553Z,100237.61
2019-04-05T12:15:06.227Z,100227.81
2019-04-05T12:20:11.263Z,100233.30
2019-04-05T12:25:15.496Z,100239.76
2019-04-05T12:30:20.262Z,100237.67
2019-04-05T12:35:24.491Z,100239.43
2019-04-05T12:40:28.470Z,100234.16
2019-04-05T12:45:33.449Z,100229.60
2019-04-05T12:50:37.563Z,100219.23
2019-04-05T12:55:41.612Z,100223.77
2019-04-05T13:00:46.036Z,100225.45
2019-04-05T13:05:51.485Z,100220.57
2019-04-05T13:10:57.026Z,100216.94
2019-04-05T13:16:01.391Z,100215.70
2019-04-05T13:21:14.514Z,100225.06
2019-04-05T13:26:12.480Z,100221.39
2019-04-05T13:31:18.880Z,100219.14
2019-04-05T13:36:23.459Z,100208.66
2019-04-05T13:41:31.467Z,100209.75
2019-04-05T13:46:33.717Z,100210.44
2019-04-05T13:51:41.567Z,100203.20
2019-04-05T13:56:43.653Z,100192.19
2019-04-05T14:01:50.888Z,100196.75
2019-04-05T14:06:54.289Z,100209.44
2019-04-05T14:12:02.446Z,100212.14
2019-04-05T14:17:07.116Z,100214.59
2019-04-05T14:22:11.967Z,100217.16
2019-04-05T14:27:16.164Z,100205.70
2019-04-05T14:32:21.674Z,100194.42
2019-04-05T14:37:26.086Z,100201.24
2019-04-05T14:42:30.125Z,100196.34
2019-04-05T14:47:34.479Z,100186.53
2019-04-05T14:52:38.616Z,100185.34
2019-04-05T14:57:42.750Z,100188.27
2019-04-05T15:02:46.870Z,100189.43
2019-04-05T15:07:51.734Z,100190.48
2019-04-05T15:12:56.401Z,100186.37
2019-04-05T15:18:00.486Z,100183.09
2019-04-05T15:23:04.634Z,100178.45
2019-04-05T15:28:08.663Z,100176.94
2019-04-05T15:33:12.717Z,100167.41
2019-04-05T15:38:16.752Z,100179.89
2019-04-05T15:43:20.769Z,100174.10
2019-04-05T15:48:24.873Z,100181.75
2019-04-05T15:53:31.883Z,100183.59
2019-04-05T15:58:34.845Z,100178.11
2019-04-05T16:03:39.170Z,100173.38
2019-04-05T16:08:43.184Z,100170.67
2019-04-05T16:13:47.188Z,100180.53
2019-04-05T16:18:51.200Z,100173.89
2019-04-05T16:23:55.323Z,100176.48
2019-04-05T16:28:59.389Z,100187.32
2019-04-05T16:34:03.423Z,100194.96
2019-04-05T16:39:07.668Z,100186.92
2019-04-05T16:44:11.681Z,100180.03
2019-04-05T16:49:15.789Z,100184.55
2019-04-05T16:54:20.078Z,100175.77
2019-04-05T16:59:24.121Z,100180.48
2019-04-05T17:04:28.177Z,100183.17
2019-04-05T17:09:32.248Z,100183.80
2019-04-05T17:14:36.329Z,100184.30
2019-04-05T17:19:40.466Z,100182.31
2019-04-05T17:24:44.751Z,100189.41
2019-04-05T17:29:48.756Z,100183.39
2019-04-05T17:34:53.085Z,100186.39
2019-04-05T17:39:57.194Z,100207.68
2019-04-05T17:45:01.486Z,100213.72
2019-04-05T17:50:10.819Z,100220.76
2019-04-05T17:55:15.216Z,100217.75
2019-04-05T18:00:19.475Z,100219.30
2019-04-05T18:05:23.600Z,100220.63
2019-04-05T18:10:27.764Z,100207.27
2019-04-05T18:15:32.061Z,100212.53
2019-04-05T18:20:36.629Z,100199.33
2019-04-05T18:25:41.067Z,100189.94
2019-04-05T18:30:45.481Z,100193.34
2019-04-05T18:35:49.804Z,100199.89
2019-04-05T18:40:54.109Z,100207.73
2019-04-05T18:46:09.739Z,100209.97
2019-04-05T18:51:14.255Z,100227.34
2019-04-05T18:56:18.469Z,100227.24
2019-04-05T19:01:22.835Z,100227.42
2019-04-05T19:06:27.934Z,100218.60
2019-04-05T19:11:32.329Z,100218.54
2019-04-05T19:16:36.856Z,100213.51
2019-04-05T19:21:43.009Z,100206.66
2019-04-05T19:26:47.391Z,100203.02
2019-04-05T19:52:17.678Z,100220.06
2019-04-05T19:57:22.512Z,100208.84
2019-04-05T20:02:27.251Z,100214.91
2019-04-05T20:07:32.384Z,100213.70
2019-04-05T20:12:37.082Z,100221.17
2019-04-05T20:17:42.457Z,100221.13
2019-04-05T20:22:47.224Z,100214.75
2019-04-05T20:27:51.555Z,100225.97
2019-04-05T20:32:55.827Z,100226.91
2019-04-05T20:38:00.168Z,100231.69
2019-04-05T20:43:04.464Z,100235.95
2019-04-05T20:48:08.722Z,100237.31
2019-04-05T20:53:13.342Z,100248.27
2019-04-05T20:58:17.707Z,100247.67
2019-04-05T21:03:21.965Z,100240.87
2019-04-05T21:08:26.214Z,100241.53
2019-04-05T21:13:30.365Z,100248.59
2019-04-05T21:18:34.875Z,100250.64
2019-04-05T21:23:39.548Z,100246.59
2019-04-05T21:28:43.722Z,100250.16
2019-04-05T21:33:47.807Z,100256.79
2019-04-05T21:38:52.137Z,100258.53
2019-04-05T21:43:56.549Z,100258.60
2019-04-05T21:49:00.637Z,100259.97
2019-04-05T21:54:04.694Z,100257.80
2019-04-05T21:59:09.151Z,100257.41
2019-04-05T22:04:13.507Z,100263.59
2019-04-05T22:09:17.569Z,100268.63
2019-04-05T22:14:21.631Z,100266.64
2019-04-05T22:19:26.421Z,100272.16
2019-04-05T22:24:30.981Z,100267.84
2019-04-05T22:29:35.699Z,100270.81
2019-04-05T22:34:40.048Z,100257.16
2019-04-05T22:39:44.680Z,100257.31
2019-04-05T22:44:48.823Z,100259.81
2019-04-05T22:49:52.893Z,100261.66
2019-04-05T22:54:56.952Z,100257.16
2019-04-05T23:00:01.018Z,100257.16
2019-04-05T23:05:05.138Z,100263.00
2019-04-05T23:10:09.779Z,100261.85
2019-04-05T23:15:14.279Z,100263.50
2019-04-05T23:20:18.362Z,100265.32
2019-04-05T23:25:22.584Z,100263.16
2019-04-05T23:30:26.710Z,100265.30
2019-04-05T23:35:30.763Z,100267.77
2019-04-05T23:40:34.813Z,100261.78
2019-04-05T23:45:39.355Z,100273.05
2019-04-05T23:50:43.448Z,100273.05
2019-04-05T23:55:47.581Z,100271.51
